To NAV CANADA Home Page Login to a new session Search on AWWS site Feedback and Comments Disclaimer Vers la page française équivalente Tips FAQ What's new on the site To the Forecasts and Observations / NOTAM section To "File a Flight Plan" website Publications and other links Update of the User's profile FIC Telephone Numbers My Weather Data Folder Route Weather Data Regional Weather Data Local Weather Data To the Forecasts and Observations / NOTAM section
Request Generated 07/28/2016 at 02:48:27 UTC . Weather information available at that time is displayed.

METAR/TAF

SAINT JOHN/NB    

METAR CYSJ 280200Z 20006KT 15SM FEW078 SCT260 19/17 A2987 RMK AC1CI3
SLP116 DENSITY ALT 900FT=
METAR CYSJ 280100Z 21004KT 15SM FEW078 SCT260 19/18 A2987 RMK AC2CI2
SLP116 DENSITY ALT 900FT=
METAR CYSJ 280000Z 20004KT 15SM FEW050 FEW078 BKN260 22/18 A2987 RMK
CU1AC1CI4 SLP115 DENSITY ALT 1200FT=

TAF CYSJ 272340Z 2800/2812 22005KT P6SM FEW050
FM280300 VRB03KT P6SM BKN060
FM280700 VRB03KT P6SM FEW060 PROB40 2807/2811 1/2SM FG VV002
RMK NXT FCST BY 280600Z=
Your time UTC time
Weather data provided by Environment Canada and NAV CANADA